Time;durP1;ratioP1;P1;durP2;ratioP2;P2;SDS_P1;SDS_P2;PMS_P1;PMS_P2;Temp;Humidity;BMP_temperature;BMP_pressure;BME280_temperature;BME280_humidity;BME280_pressure;Samples;Min_cycle;Max_cycle;Signal;HPM_P1;HPM_P2
2021/07/09 00:02:00;;;;;;;13.67;11.70;;;16.10;99.90;;;;;;4997515;28;20436;-68
2021/07/09 00:04:30;;;;;;;14.03;11.97;;;16.10;99.90;;;;;;4992588;28;20476;-68
2021/07/09 00:06:59;;;;;;;11.50;10.50;;;16.10;99.90;;;;;;5000537;28;20456;-68
2021/07/09 00:09:27;;;;;;;12.90;11.70;;;16.10;99.90;;;;;;5000114;28;20464;-68
2021/07/09 00:11:55;;;;;;;15.37;13.87;;;16.10;99.90;;;;;;5000920;28;20468;-68
2021/07/09 00:14:33;;;;;;;14.97;13.67;;;16.10;99.90;;;;;;5000561;28;20940;-68
2021/07/09 00:17:01;;;;;;;21.43;13.40;;;16.10;99.90;;;;;;5000831;28;20511;-68
2021/07/09 00:19:28;;;;;;;14.17;12.70;;;16.10;99.90;;;;;;5000065;28;20459;-68
2021/07/09 00:58:49;;;;;;;11.53;10.43;;;16.00;99.90;;;;;;4109756;22;20479;-67
2021/07/09 01:01:16;;;;;;;12.00;10.90;;;16.00;99.90;;;;;;5039509;28;20517;-66
2021/07/09 01:03:43;;;;;;;13.93;12.43;;;16.00;99.90;;;;;;5039459;28;20474;-67
2021/07/09 01:06:13;;;;;;;13.40;12.30;;;16.00;99.90;;;;;;5024643;28;20471;-66
2021/07/09 01:08:40;;;;;;;13.10;11.90;;;16.00;99.90;;;;;;5018144;28;20567;-65
2021/07/09 01:11:09;;;;;;;11.40;10.30;;;16.00;99.90;;;;;;5019328;28;20544;-66
2021/07/09 01:13:36;;;;;;;12.40;11.10;;;16.00;99.90;;;;;;5019410;28;20792;-66
2021/07/09 01:16:05;;;;;;;11.87;10.77;;;16.00;99.90;;;;;;5019050;28;20456;-67
2021/07/09 01:18:33;;;;;;;12.00;10.90;;;15.90;99.90;;;;;;5019159;28;20538;-66
2021/07/09 01:21:01;;;;;;;12.80;11.60;;;15.90;99.90;;;;;;5019361;28;20562;-66
2021/07/09 01:23:29;;;;;;;12.93;11.83;;;15.80;99.90;;;;;;5019069;28;20468;-66
2021/07/09 01:25:58;;;;;;;13.60;12.27;;;15.90;99.90;;;;;;5018742;28;20811;-66
2021/07/09 01:28:28;;;;;;;12.33;11.20;;;16.00;99.90;;;;;;5019176;28;20471;-65
2021/07/09 01:30:55;;;;;;;12.90;11.70;;;16.00;99.90;;;;;;5019286;28;20769;-66
2021/07/09 01:33:22;;;;;;;13.27;12.07;;;15.90;99.90;;;;;;5018543;28;20471;-65
2021/07/09 01:35:49;;;;;;;16.93;12.77;;;16.00;99.90;;;;;;5018941;28;20911;-65
2021/07/09 01:38:16;;;;;;;12.90;11.67;;;15.90;99.90;;;;;;5018947;28;20854;-66
2021/07/09 01:40:43;;;;;;;13.10;11.83;;;15.90;99.90;;;;;;5018988;28;20492;-66
2021/07/09 01:43:12;;;;;;;12.87;11.77;;;15.90;99.90;;;;;;5018166;28;20464;-67
2021/07/09 01:45:39;;;;;;;12.00;10.90;;;15.90;99.90;;;;;;5018942;28;20490;-67
2021/07/09 01:48:07;;;;;;;14.23;12.60;;;15.90;99.90;;;;;;5018890;28;20510;-67
2021/07/09 01:50:34;;;;;;;11.80;10.70;;;15.90;99.90;;;;;;5018951;28;20456;-68
2021/07/09 01:53:02;;;;;;;12.00;10.80;;;15.90;99.90;;;;;;5018715;28;20468;-67
2021/07/09 01:55:29;;;;;;;12.93;11.57;;;15.90;99.90;;;;;;5018406;28;20468;-68
2021/07/09 01:57:58;;;;;;;14.63;12.67;;;15.90;99.90;;;;;;5018601;28;20464;-68
2021/07/09 02:00:27;;;;;;;13.67;12.37;;;15.90;99.90;;;;;;5017904;28;20500;-67
2021/07/09 02:02:58;;;;;;;13.27;12.00;;;15.90;99.90;;;;;;5018844;28;20526;-68
2021/07/09 02:05:25;;;;;;;12.83;11.77;;;15.90;99.90;;;;;;5014719;28;20769;-68
2021/07/09 02:07:55;;;;;;;13.73;12.37;;;15.90;99.90;;;;;;5018292;28;20522;-67
2021/07/09 02:10:24;;;;;;;13.73;12.43;;;15.90;99.90;;;;;;5018522;28;20829;-67
2021/07/09 02:12:54;;;;;;;14.43;12.93;;;15.90;99.90;;;;;;5018690;28;20547;-67
2021/07/09 02:15:23;;;;;;;13.63;12.37;;;15.90;99.90;;;;;;5017858;28;20464;-67
2021/07/09 02:17:54;;;;;;;14.40;13.10;;;15.90;99.90;;;;;;5018629;28;20464;-67
2021/07/09 02:20:23;;;;;;;13.70;12.27;;;15.90;99.90;;;;;;5017435;28;20526;-67
2021/07/09 02:22:54;;;;;;;14.30;12.30;;;15.80;99.90;;;;;;5018574;28;20526;-67
2021/07/09 02:25:21;;;;;;;12.70;11.50;;;15.80;99.90;;;;;;5018708;28;20799;-67
2021/07/09 02:27:50;;;;;;;13.90;12.53;;;15.80;99.90;;;;;;5016925;28;20460;-67
2021/07/09 02:30:19;;;;;;;14.30;12.90;;;15.80;99.90;;;;;;5018145;28;20479;-67
2021/07/09 02:32:46;;;;;;;13.57;12.37;;;15.90;99.90;;;;;;5018089;28;20821;-67
2021/07/09 02:35:17;;;;;;;13.83;12.53;;;15.90;99.90;;;;;;5018958;28;20745;-67
2021/07/09 02:37:44;;;;;;;14.90;13.60;;;15.90;99.90;;;;;;5017458;28;20518;-67
2021/07/09 02:40:15;;;;;;;13.10;11.90;;;15.90;99.90;;;;;;5019284;28;20460;-67
2021/07/09 02:42:46;;;;;;;14.03;12.60;;;15.80;99.90;;;;;;5017966;28;20475;-67
2021/07/09 02:45:14;;;;;;;13.90;12.47;;;15.80;99.90;;;;;;5017843;28;20468;-67
2021/07/09 02:47:43;;;;;;;15.23;13.40;;;15.80;99.90;;;;;;5017255;28;20514;-67
2021/07/09 02:50:13;;;;;;;13.57;11.77;;;15.80;99.90;;;;;;5017473;28;20472;-67
2021/07/09 02:52:41;;;;;;;14.00;12.60;;;15.80;99.90;;;;;;5017557;28;20460;-68
2021/07/09 02:55:11;;;;;;;14.97;13.13;;;15.80;99.90;;;;;;5017623;28;20471;-68
2021/07/09 02:57:41;;;;;;;14.73;13.40;;;15.80;99.90;;;;;;5019320;28;20464;-67
2021/07/09 03:00:11;;;;;;;13.83;12.37;;;15.80;99.90;;;;;;5016809;28;21014;-68
2021/07/09 03:02:39;;;;;;;13.80;12.60;;;15.80;99.90;;;;;;5015733;28;20507;-68
2021/07/09 03:05:07;;;;;;;15.87;14.27;;;15.90;99.90;;;;;;5018982;28;20550;-67
2021/07/09 03:07:35;;;;;;;14.53;13.10;;;15.80;99.90;;;;;;5017308;28;20889;-67
2021/07/09 03:10:04;;;;;;;15.53;14.03;;;15.80;99.90;;;;;;5018069;28;20466;-68
2021/07/09 03:12:31;;;;;;;15.23;13.90;;;15.80;99.90;;;;;;5017159;28;20522;-67
2021/07/09 03:14:58;;;;;;;17.00;15.37;;;15.80;99.90;;;;;;5017268;28;20471;-67
2021/07/09 03:17:25;;;;;;;16.90;15.37;;;15.80;99.90;;;;;;5017181;28;20468;-67
2021/07/09 03:19:52;;;;;;;16.13;14.50;;;15.80;99.90;;;;;;5017111;28;20464;-67
2021/07/09 03:22:20;;;;;;;16.67;14.10;;;15.90;99.90;;;;;;5016719;28;20495;-67
2021/07/09 03:24:47;;;;;;;14.97;13.60;;;15.90;99.90;;;;;;5017107;28;20819;-67
2021/07/09 03:27:16;;;;;;;14.50;13.20;;;15.90;99.90;;;;;;5017323;28;20468;-67
2021/07/09 03:29:43;;;;;;;15.57;14.23;;;15.80;99.90;;;;;;5016597;28;20839;-67
2021/07/09 03:32:10;;;;;;;14.93;13.43;;;15.80;99.90;;;;;;5016930;28;20459;-67
2021/07/09 03:34:38;;;;;;;17.50;15.70;;;15.90;99.90;;;;;;5017343;28;20790;-67
2021/07/09 03:37:05;;;;;;;17.87;16.17;;;15.80;99.90;;;;;;5017345;28;20724;-67
2021/07/09 03:39:32;;;;;;;16.57;15.07;;;15.80;99.90;;;;;;5016899;28;20456;-67
2021/07/09 03:41:59;;;;;;;16.40;14.80;;;15.80;99.90;;;;;;5020825;28;20531;-67
2021/07/09 03:44:28;;;;;;;15.93;14.33;;;15.80;99.90;;;;;;5020965;28;20464;-67
2021/07/09 03:46:55;;;;;;;16.17;14.57;;;15.90;99.90;;;;;;5021090;28;20872;-67
2021/07/09 03:49:22;;;;;;;17.40;15.70;;;15.90;99.90;;;;;;5020421;28;20927;-67
2021/07/09 03:51:49;;;;;;;15.53;13.97;;;15.90;99.90;;;;;;5020859;28;20456;-67
2021/07/09 03:54:17;;;;;;;18.40;14.77;;;15.90;99.90;;;;;;5020663;28;20487;-68
2021/07/09 03:56:44;;;;;;;16.90;15.27;;;15.90;99.90;;;;;;5020650;28;20446;-68
2021/07/09 03:59:11;;;;;;;18.70;16.50;;;15.90;99.90;;;;;;5020126;28;20561;-68
2021/07/09 04:01:39;;;;;;;17.33;15.53;;;15.90;99.90;;;;;;5020721;28;20808;-68
2021/07/09 04:04:06;;;;;;;18.57;16.67;;;15.90;99.90;;;;;;5020058;28;20553;-67
2021/07/09 04:06:33;;;;;;;20.13;17.10;;;15.90;99.90;;;;;;5020021;28;20873;-68
2021/07/09 04:09:00;;;;;;;17.17;15.57;;;16.00;99.90;;;;;;5020075;28;20463;-67
2021/07/09 04:11:27;;;;;;;17.10;15.37;;;16.00;99.90;;;;;;5020546;28;20526;-68
2021/07/09 04:13:54;;;;;;;17.80;15.97;;;16.00;99.90;;;;;;5020096;28;20460;-68
2021/07/09 04:16:21;;;;;;;18.63;16.73;;;16.00;99.90;;;;;;5020292;28;20946;-68
2021/07/09 04:18:50;;;;;;;17.80;15.03;;;16.00;99.90;;;;;;5020075;28;20913;-68
2021/07/09 04:21:17;;;;;;;17.13;15.50;;;16.00;99.90;;;;;;5019891;28;20777;-68
2021/07/09 04:23:44;;;;;;;20.90;16.47;;;15.90;99.90;;;;;;5020348;28;20537;-67
2021/07/09 04:26:11;;;;;;;20.43;17.00;;;16.00;99.90;;;;;;5019970;28;20810;-67
2021/07/09 04:28:40;;;;;;;18.00;16.20;;;15.90;99.90;;;;;;5020160;28;20825;-67
2021/07/09 04:31:08;;;;;;;17.93;16.13;;;16.00;99.90;;;;;;5019924;28;20464;-66
2021/07/09 04:33:34;;;;;;;20.00;17.90;;;16.10;99.90;;;;;;5020265;28;20943;-66
2021/07/09 04:36:03;;;;;;;19.77;17.77;;;16.10;99.90;;;;;;5019669;28;20530;-66
2021/07/09 04:38:31;;;;;;;18.70;16.87;;;16.00;99.90;;;;;;5019724;28;20460;-67
2021/07/09 04:40:58;;;;;;;18.47;16.50;;;16.00;99.90;;;;;;5019856;28;20771;-67
2021/07/09 04:43:25;;;;;;;19.10;17.20;;;16.10;99.90;;;;;;5019988;28;20522;-66
2021/07/09 04:45:52;;;;;;;19.60;17.80;;;16.10;99.90;;;;;;5019424;28;20439;-66
2021/07/09 04:48:19;;;;;;;20.30;18.27;;;16.20;99.90;;;;;;5019494;28;20523;-66
2021/07/09 04:50:46;;;;;;;21.57;19.23;;;16.10;99.90;;;;;;5019040;28;20468;-66
2021/07/09 04:53:14;;;;;;;21.97;19.43;;;16.10;99.90;;;;;;5019828;28;20459;-66
2021/07/09 04:55:41;;;;;;;21.77;19.43;;;16.10;99.90;;;;;;5019757;28;20464;-66
2021/07/09 04:58:08;;;;;;;22.37;19.50;;;16.20;99.90;;;;;;5019427;28;20468;-66
2021/07/09 05:00:38;;;;;;;21.47;19.37;;;16.20;99.90;;;;;;5019277;28;20939;-66
2021/07/09 05:03:08;;;;;;;20.20;18.30;;;16.20;99.90;;;;;;5017072;28;20832;-67
2021/07/09 05:05:38;;;;;;;21.37;19.23;;;16.30;99.90;;;;;;5029060;28;20924;-66
2021/07/09 05:08:06;;;;;;;21.40;19.23;;;16.30;99.90;;;;;;5037802;28;20459;-66
2021/07/09 05:10:34;;;;;;;21.30;19.13;;;16.40;99.90;;;;;;5038642;28;20498;-67
2021/07/09 05:13:03;;;;;;;24.20;21.20;;;16.40;99.90;;;;;;5038338;28;20458;-66
2021/07/09 05:15:33;;;;;;;22.00;20.00;;;16.50;99.90;;;;;;5039420;28;20803;-66
2021/07/09 05:18:01;;;;;;;27.83;25.03;;;16.60;99.90;;;;;;5039636;28;20805;-66
2021/07/09 05:20:28;;;;;;;29.47;26.57;;;16.60;99.90;;;;;;5039076;28;20930;-66
2021/07/09 05:22:55;;;;;;;30.30;27.17;;;16.60;99.90;;;;;;5038090;28;21005;-66
2021/07/09 05:25:25;;;;;;;30.83;28.03;;;16.60;99.90;;;;;;5038283;28;20467;-66
2021/07/09 05:27:54;;;;;;;34.17;30.77;;;16.70;99.90;;;;;;5038611;28;20888;-67
2021/07/09 05:30:21;;;;;;;34.67;30.67;;;16.70;99.90;;;;;;5038416;28;20462;-67
2021/07/09 05:32:55;;;;;;;37.20;33.50;;;16.70;99.90;;;;;;5038683;28;20464;-67
2021/07/09 05:35:27;;;;;;;36.13;31.60;;;16.80;99.90;;;;;;5038807;28;20464;-67
2021/07/09 05:37:54;;;;;;;37.77;33.73;;;16.80;99.90;;;;;;5038407;28;20509;-66
2021/07/09 05:40:23;;;;;;;36.13;32.70;;;16.90;99.90;;;;;;5037913;28;20505;-66
2021/07/09 05:42:50;;;;;;;35.97;32.37;;;17.10;99.90;;;;;;5039121;28;20498;-66
2021/07/09 05:45:19;;;;;;;36.57;33.07;;;17.10;99.90;;;;;;5038653;28;20467;-66
2021/07/09 05:47:46;;;;;;;34.40;31.00;;;17.10;99.90;;;;;;5038487;28;20558;-66
2021/07/09 05:50:14;;;;;;;37.00;33.30;;;17.10;99.90;;;;;;5037990;28;20498;-66
2021/07/09 05:52:41;;;;;;;37.80;33.93;;;17.20;99.90;;;;;;5039037;28;20459;-66
2021/07/09 05:55:09;;;;;;;38.93;34.47;;;17.10;99.90;;;;;;5038380;28;20532;-66
2021/07/09 05:57:38;;;;;;;36.27;32.67;;;17.10;99.90;;;;;;5038050;28;20792;-66
2021/07/09 06:00:06;;;;;;;38.33;34.50;;;17.10;99.90;;;;;;5031382;28;20867;-66
2021/07/09 06:02:36;;;;;;;40.57;36.57;;;17.00;99.90;;;;;;5023179;28;20940;-66
2021/07/09 06:05:04;;;;;;;40.00;35.60;;;17.00;99.90;;;;;;5017757;28;20472;-66
2021/07/09 06:07:31;;;;;;;41.47;37.10;;;17.10;99.90;;;;;;5028282;28;20911;-66
2021/07/09 06:10:00;;;;;;;39.70;35.70;;;17.10;99.90;;;;;;5027797;28;20456;-66
2021/07/09 06:12:28;;;;;;;41.47;37.17;;;17.10;99.90;;;;;;5028340;28;20454;-66
2021/07/09 06:14:55;;;;;;;43.70;38.77;;;17.20;99.90;;;;;;5029553;28;20915;-66
2021/07/09 06:17:22;;;;;;;42.27;37.70;;;17.20;99.90;;;;;;5020874;28;20470;-66
2021/07/09 06:19:51;;;;;;;39.80;35.70;;;17.20;99.90;;;;;;5018185;28;20530;-66
2021/07/09 06:22:18;;;;;;;41.97;37.67;;;17.30;99.90;;;;;;5029706;28;20487;-66
2021/07/09 06:24:45;;;;;;;46.13;41.33;;;17.30;99.90;;;;;;5021946;28;20456;-66
2021/07/09 06:27:12;;;;;;;45.27;40.53;;;17.00;99.90;;;;;;5026895;28;20967;-66
2021/07/09 06:29:39;;;;;;;46.60;41.97;;;17.00;99.90;;;;;;5027593;28;20885;-66
2021/07/09 06:32:07;;;;;;;46.50;41.50;;;17.00;99.90;;;;;;5025897;28;20456;-66
2021/07/09 06:34:39;;;;;;;48.27;43.07;;;17.10;99.90;;;;;;5027502;28;20510;-66
2021/07/09 06:37:07;;;;;;;49.33;44.17;;;17.10;99.90;;;;;;5028894;28;20540;-66
2021/07/09 06:39:34;;;;;;;48.73;43.83;;;17.20;99.90;;;;;;5027983;28;20509;-66
2021/07/09 06:42:01;;;;;;;47.83;43.03;;;17.30;99.90;;;;;;5028095;28;20553;-66
2021/07/09 06:44:31;;;;;;;49.00;44.00;;;17.40;99.90;;;;;;5017468;28;20525;-66
2021/07/09 06:46:58;;;;;;;49.97;44.77;;;17.40;99.90;;;;;;5026573;28;20519;-66
2021/07/09 06:49:25;;;;;;;50.20;45.10;;;17.40;99.90;;;;;;5025293;28;20953;-66
2021/07/09 06:51:52;;;;;;;78.57;51.67;;;17.40;99.90;;;;;;5024215;28;20826;-66
2021/07/09 06:54:20;;;;;;;55.73;49.47;;;17.40;99.90;;;;;;5024648;28;20714;-66
2021/07/09 06:56:47;;;;;;;57.93;50.23;;;17.20;99.90;;;;;;5026097;28;20901;-66
2021/07/09 06:59:14;;;;;;;58.77;52.27;;;17.10;99.90;;;;;;5023641;28;20482;-66
2021/07/09 07:01:41;;;;;;;61.23;54.13;;;17.00;99.90;;;;;;5026783;28;20538;-66
2021/07/09 07:04:09;;;;;;;230.37;205.57;;;17.10;99.90;;;;;;5017147;28;20506;-66
2021/07/09 07:06:36;;;;;;;72.30;58.93;;;17.20;99.90;;;;;;5021670;28;20448;-67
2021/07/09 07:09:04;;;;;;;61.07;53.83;;;17.30;99.90;;;;;;5025920;28;20492;-66
2021/07/09 07:11:32;;;;;;;64.20;57.20;;;17.60;99.90;;;;;;5027848;28;20815;-66
2021/07/09 07:14:08;;;;;;;61.57;54.03;;;17.80;99.90;;;;;;5024801;28;20514;-66
2021/07/09 07:16:35;;;;;;;69.37;58.17;;;18.00;99.90;;;;;;5022671;28;20433;-66
2021/07/09 07:19:02;;;;;;;65.43;54.50;;;18.10;99.90;;;;;;5022042;28;20486;-67
2021/07/09 07:21:29;;;;;;;65.40;56.37;;;18.20;99.90;;;;;;5023412;28;20510;-67
2021/07/09 07:23:56;;;;;;;65.77;55.77;;;18.20;99.90;;;;;;5023636;28;20491;-68
2021/07/09 07:26:26;;;;;;;57.93;51.63;;;18.20;99.90;;;;;;5023291;28;20549;-67
2021/07/09 07:28:54;;;;;;;58.50;50.47;;;18.20;99.90;;;;;;5023470;28;20467;-67
2021/07/09 07:31:24;;;;;;;60.87;52.03;;;18.20;99.90;;;;;;5029197;28;20517;-67
2021/07/09 07:33:51;;;;;;;56.00;49.33;;;18.30;99.90;;;;;;5036271;28;20460;-67
2021/07/09 07:36:21;;;;;;;53.10;47.50;;;18.40;99.90;;;;;;5031877;28;20464;-67
2021/07/09 07:38:48;;;;;;;55.63;49.53;;;18.40;99.90;;;;;;5036202;28;20454;-67
2021/07/09 07:41:20;;;;;;;50.80;45.20;;;18.50;99.90;;;;;;5028693;28;20521;-68
2021/07/09 07:43:51;;;;;;;56.40;47.63;;;18.50;99.90;;;;;;5037318;28;20903;-67
2021/07/09 07:46:20;;;;;;;52.30;46.60;;;18.60;99.90;;;;;;5024368;28;20776;-68
2021/07/09 07:48:47;;;;;;;49.27;43.90;;;18.60;99.90;;;;;;5023075;28;20468;-68
2021/07/09 07:51:14;;;;;;;52.70;47.10;;;18.60;99.90;;;;;;5023202;28;20467;-67
2021/07/09 07:53:41;;;;;;;53.60;47.33;;;18.30;99.90;;;;;;5023570;28;20438;-67
2021/07/09 07:56:08;;;;;;;54.20;48.37;;;18.30;99.90;;;;;;5025589;28;20794;-67
2021/07/09 07:58:36;;;;;;;53.30;47.70;;;18.20;99.90;;;;;;5038194;28;20556;-68
2021/07/09 08:01:06;;;;;;;56.00;47.80;;;18.20;99.90;;;;;;5038115;28;20479;-68
2021/07/09 08:03:34;;;;;;;53.57;45.47;;;18.20;99.90;;;;;;5031811;28;20487;-68
2021/07/09 08:06:02;;;;;;;49.77;44.47;;;18.20;99.90;;;;;;5030818;28;20457;-68
2021/07/09 08:08:29;;;;;;;51.77;45.90;;;18.30;99.90;;;;;;5037244;28;20523;-69
2021/07/09 08:10:56;;;;;;;48.37;43.07;;;18.40;99.90;;;;;;5027859;28;20450;-69
2021/07/09 08:13:23;;;;;;;52.03;43.73;;;18.40;99.90;;;;;;5035977;28;20804;-69
2021/07/09 08:15:50;;;;;;;49.20;42.13;;;18.60;99.90;;;;;;5039435;28;20809;-70
2021/07/09 08:18:20;;;;;;;40.47;36.10;;;18.70;99.90;;;;;;5036728;28;20513;-70
2021/07/09 08:20:49;;;;;;;38.57;34.60;;;18.60;99.90;;;;;;5032322;28;20529;-70
2021/07/09 08:23:16;;;;;;;38.10;33.90;;;18.80;99.90;;;;;;5022800;28;20840;-70
2021/07/09 08:25:43;;;;;;;42.80;36.30;;;18.90;99.90;;;;;;5021351;28;20480;-69
2021/07/09 08:28:13;;;;;;;37.67;33.67;;;18.70;99.90;;;;;;5019971;28;20530;-69
2021/07/09 09:11:34;;;;;;;28.20;25.40;;;21.40;99.90;;;;;;5429961;22;21473;-68
2021/07/09 09:14:22;;;;;;;26.87;24.10;;;21.50;99.90;;;;;;5024918;28;20514;-68
2021/07/09 09:16:49;;;;;;;25.23;23.00;;;21.40;99.90;;;;;;5019628;28;20468;-68
2021/07/09 09:19:26;;;;;;;25.77;23.37;;;20.90;99.90;;;;;;5019168;28;20805;-67
2021/07/09 09:22:10;;;;;;;25.10;22.90;;;20.80;99.90;;;;;;5019470;28;20784;-67
2021/07/09 09:24:36;;;;;;;25.53;23.33;;;21.40;99.90;;;;;;5019505;28;20468;-67
2021/07/09 09:27:20;;;;;;;26.30;24.00;;;21.90;99.90;;;;;;5019215;28;20468;-67
2021/07/09 09:29:49;;;;;;;24.13;21.93;;;23.30;99.90;;;;;;5018781;28;20490;-67
2021/07/09 09:32:20;;;;;;;23.00;20.90;;;23.20;99.90;;;;;;5018698;28;20463;-67
2021/07/09 09:34:54;;;;;;;24.53;22.37;;;22.90;99.90;;;;;;5018414;28;20479;-66
2021/07/09 09:37:23;;;;;;;25.67;23.57;;;22.50;99.90;;;;;;5018333;28;20468;-64
2021/07/09 09:39:50;;;;;;;27.37;25.07;;;22.60;99.90;;;;;;5018023;28;20452;-65
2021/07/09 09:42:23;;;;;;;20.75;19.05;;;23.00;99.90;;;;;;5018906;28;20446;-65
2021/07/09 09:44:52;;;;;;;18.93;17.40;;;23.00;99.90;;;;;;5019135;28;20571;-64
2021/07/09 09:47:22;;;;;;;20.50;18.70;;;22.70;99.90;;;;;;5019081;28;20468;-65
2021/07/09 09:49:53;;;;;;;19.67;17.80;;;22.50;99.90;;;;;;5018422;28;20438;-64
2021/07/09 09:52:40;;;;;;;18.03;16.73;;;22.80;99.90;;;;;;5018532;28;20769;-63
2021/07/09 09:55:12;;;;;;;20.47;18.87;;;22.90;99.90;;;;;;5018660;28;20475;-63
2021/07/09 09:57:41;;;;;;;20.30;18.70;;;22.80;99.90;;;;;;5018896;28;20464;-63
2021/07/09 10:00:28;;;;;;;19.13;17.60;;;23.20;99.90;;;;;;5018161;28;20471;-62
2021/07/09 10:02:55;;;;;;;16.63;15.23;;;24.30;99.90;;;;;;5015926;28;20482;-62
2021/07/09 10:05:22;;;;;;;15.80;14.30;;;23.50;98.30;;;;;;5014421;28;20530;-62
2021/07/09 10:07:52;;;;;;;14.87;13.77;;;23.50;98.30;;;;;;5018236;28;20467;-62
2021/07/09 10:10:20;;;;;;;13.70;12.57;;;23.20;97.20;;;;;;5031753;28;20459;-62
2021/07/09 10:12:53;;;;;;;8.00;7.37;;;23.40;96.90;;;;;;5036438;28;21007;-62
2021/07/09 10:15:20;;;;;;;8.17;7.50;;;23.50;93.20;;;;;;5037716;28;20463;-61
2021/07/09 10:17:50;;;;;;;9.27;8.50;;;23.60;92.90;;;;;;5038171;28;20528;-61
2021/07/09 10:20:20;;;;;;;10.90;10.00;;;23.70;90.70;;;;;;5037959;28;20842;-61
2021/07/09 10:22:49;;;;;;;11.27;10.27;;;23.60;92.90;;;;;;5022287;28;20442;-63
2021/07/09 10:25:17;;;;;;;12.50;11.50;;;23.70;95.00;;;;;;5017708;28;20530;-60
2021/07/09 10:27:45;;;;;;;12.07;11.03;;;23.90;92.00;;;;;;5018285;28;20460;-60
2021/07/09 10:30:15;;;;;;;11.60;10.57;;;23.90;93.00;;;;;;5018187;28;20538;-61
2021/07/09 10:32:46;;;;;;;12.97;11.87;;;23.70;94.40;;;;;;5018019;28;20892;-61
2021/07/09 10:35:33;;;;;;;12.10;11.10;;;24.50;94.60;;;;;;5020202;28;20565;-60
2021/07/09 10:38:11;;;;;;;14.47;13.47;;;24.40;91.40;;;;;;5029124;28;20463;-61
2021/07/09 11:18:54;;;;;;;12.10;11.00;;;22.50;96.20;;;;;;3375878;23;20495;-59
2021/07/09 11:21:51;;;;;;;12.33;10.90;;;22.60;96.90;;;;;;5027638;28;20431;-61
2021/07/09 12:01:23;;;;;;;10.13;8.80;;;21.40;99.90;;;;;;4771513;22;20482;-61
2021/07/09 12:03:50;;;;;;;9.10;8.33;;;21.50;99.90;;;;;;5026044;28;20491;-60
2021/07/09 12:06:21;;;;;;;9.30;8.50;;;22.00;99.90;;;;;;5019406;28;20467;-60
2021/07/09 13:22:49;;;;;;;10.53;6.40;;;23.10;91.60;;;;;;5081901;22;20486;-60
2021/07/09 13:25:21;;;;;;;8.30;7.60;;;23.30;91.90;;;;;;5038632;28;20471;-60
2021/07/09 13:27:57;;;;;;;7.87;7.20;;;23.70;91.60;;;;;;5029260;28;20559;-60
2021/07/09 13:30:24;;;;;;;8.00;7.30;;;24.70;90.90;;;;;;5032162;28;20475;-61
2021/07/09 14:16:04;;;;;;;13.33;11.13;;;22.30;92.40;;;;;;5226700;23;20610;-60
2021/07/09 14:18:35;;;;;;;11.77;10.57;;;22.10;93.80;;;;;;5019429;28;20803;-55
2021/07/09 14:21:02;;;;;;;12.80;11.63;;;22.30;94.40;;;;;;5017839;28;20526;-56
2021/07/09 14:23:32;;;;;;;11.67;10.53;;;22.30;94.30;;;;;;5018360;28;20955;-55
2021/07/09 14:25:59;;;;;;;13.10;11.60;;;22.30;94.90;;;;;;5018799;28;20459;-56
2021/07/09 14:28:26;;;;;;;14.03;12.80;;;22.20;96.00;;;;;;5030520;28;20530;-53
2021/07/09 14:30:58;;;;;;;13.03;11.83;;;22.30;97.10;;;;;;5021508;28;20468;-52
2021/07/09 14:33:27;;;;;;;13.67;12.27;;;22.40;96.40;;;;;;5018729;28;20464;-55
2021/07/09 14:35:54;;;;;;;14.47;13.17;;;22.50;96.70;;;;;;5033328;28;20769;-54
2021/07/09 14:38:21;;;;;;;14.00;12.37;;;22.70;96.30;;;;;;5034139;28;20880;-57
2021/07/09 14:40:52;;;;;;;14.30;13.10;;;22.80;95.70;;;;;;5017684;28;20476;-53
2021/07/09 14:43:19;;;;;;;14.37;13.10;;;22.90;95.60;;;;;;5018074;28;20476;-57
2021/07/09 14:45:48;;;;;;;14.20;13.00;;;23.00;95.90;;;;;;5021765;28;20464;-57
2021/07/09 14:48:18;;;;;;;14.87;13.57;;;22.80;95.80;;;;;;5018066;28;20472;-56
2021/07/09 14:50:47;;;;;;;15.20;13.73;;;22.70;96.70;;;;;;5020790;28;20484;-54
2021/07/09 14:53:14;;;;;;;15.17;13.77;;;22.90;96.70;;;;;;5021780;28;20947;-55
2021/07/09 14:55:41;;;;;;;15.47;14.07;;;22.70;96.20;;;;;;5019086;28;20566;-57
2021/07/09 14:58:10;;;;;;;16.10;13.90;;;22.70;96.90;;;;;;5019787;28;20474;-58
2021/07/09 15:00:38;;;;;;;14.67;13.27;;;22.90;97.30;;;;;;5036360;28;20822;-58
2021/07/09 15:03:06;;;;;;;15.10;13.80;;;22.90;95.50;;;;;;5030419;28;20512;-58
2021/07/09 15:05:33;;;;;;;16.20;14.63;;;23.10;96.50;;;;;;5023531;28;20464;-58
2021/07/09 15:08:02;;;;;;;14.87;13.60;;;23.20;95.30;;;;;;5027426;28;20973;-56
2021/07/09 16:24:27;;;;;;;15.53;14.17;;;22.50;99.90;;;;;;4788116;22;20967;-61
2021/07/09 16:26:53;;;;;;;14.63;13.30;;;23.20;99.90;;;;;;5021079;28;20542;-61
2021/07/09 16:29:20;;;;;;;15.07;13.73;;;23.60;99.90;;;;;;5031646;28;20541;-61
2021/07/09 16:31:48;;;;;;;15.77;14.33;;;23.60;99.90;;;;;;5039276;28;20441;-61
2021/07/09 16:34:17;;;;;;;17.90;14.50;;;23.50;99.90;;;;;;5039851;28;20463;-61
2021/07/09 16:36:44;;;;;;;16.63;15.03;;;23.30;99.90;;;;;;5039561;28;20893;-61
2021/07/09 16:39:11;;;;;;;18.03;15.90;;;23.10;99.90;;;;;;5030744;28;20931;-61
2021/07/09 16:41:41;;;;;;;17.47;15.90;;;22.90;99.90;;;;;;5033619;28;20532;-60
2021/07/09 16:44:08;;;;;;;15.53;14.20;;;22.80;99.90;;;;;;5020077;28;20495;-60
2021/07/09 16:46:35;;;;;;;16.47;15.10;;;22.50;99.90;;;;;;5019825;28;20476;-60
2021/07/09 16:49:02;;;;;;;15.97;14.37;;;22.50;99.90;;;;;;5026535;28;20525;-59
2021/07/09 16:51:31;;;;;;;15.20;13.77;;;22.40;99.90;;;;;;5022383;28;20463;-59
2021/07/09 16:53:59;;;;;;;14.80;13.30;;;22.20;99.90;;;;;;5025401;28;20452;-59
2021/07/09 16:56:28;;;;;;;13.93;12.93;;;22.10;99.90;;;;;;5025332;28;20893;-59
2021/07/09 16:58:59;;;;;;;16.47;15.07;;;22.00;99.90;;;;;;5026987;28;20824;-59
2021/07/09 17:01:26;;;;;;;16.10;14.70;;;21.90;99.90;;;;;;5025977;28;20467;-59
2021/07/09 17:03:53;;;;;;;19.97;18.17;;;21.70;99.90;;;;;;5026973;28;20782;-59
2021/07/09 17:06:24;;;;;;;18.50;16.87;;;21.70;99.90;;;;;;5026014;28;20467;-58
2021/07/09 17:08:50;;;;;;;23.00;20.67;;;21.50;99.90;;;;;;5025873;28;20771;-57
2021/07/09 17:11:17;;;;;;;20.33;18.50;;;21.20;99.90;;;;;;5024023;28;20459;-56
2021/07/09 17:13:50;;;;;;;18.00;16.30;;;21.10;99.90;;;;;;5030606;28;20455;-56
2021/07/09 17:16:24;;;;;;;18.83;17.33;;;21.10;99.90;;;;;;5030551;28;20463;-56
2021/07/09 17:18:53;;;;;;;18.30;16.90;;;21.10;99.90;;;;;;5038900;28;20467;-57
2021/07/09 17:21:21;;;;;;;19.17;17.30;;;21.10;99.90;;;;;;5037699;28;20455;-57
2021/07/09 17:23:48;;;;;;;19.53;17.73;;;21.00;99.90;;;;;;5019130;28;20553;-54
2021/07/09 17:26:15;;;;;;;19.37;17.80;;;21.00;99.90;;;;;;5019014;28;20474;-53
2021/07/09 17:28:42;;;;;;;18.80;17.00;;;21.20;99.90;;;;;;5022335;28;20467;-57
2021/07/09 17:31:12;;;;;;;17.80;16.07;;;21.40;99.90;;;;;;5038264;28;20474;-57
2021/07/09 17:33:40;;;;;;;18.00;16.50;;;21.60;99.90;;;;;;5038193;28;20471;-57
2021/07/09 17:36:07;;;;;;;20.70;18.70;;;21.70;99.90;;;;;;5018894;28;20759;-57
2021/07/09 17:38:37;;;;;;;22.23;20.33;;;21.70;99.90;;;;;;5031181;28;20455;-57
2021/07/09 17:41:04;;;;;;;18.70;17.20;;;21.50;99.90;;;;;;5019386;28;20464;-57
2021/07/09 17:43:34;;;;;;;21.53;19.53;;;21.20;99.90;;;;;;5019406;28;20464;-56
2021/07/09 17:46:01;;;;;;;23.37;20.90;;;21.00;99.90;;;;;;5018616;28;20596;-55
2021/07/09 17:48:28;;;;;;;23.53;21.63;;;20.90;99.90;;;;;;5017897;28;20530;-52
2021/07/09 17:50:58;;;;;;;23.77;21.70;;;20.80;99.90;;;;;;5019132;28;20472;-53
2021/07/09 17:53:25;;;;;;;20.63;18.90;;;20.60;99.90;;;;;;5019166;28;20467;-53
2021/07/09 17:55:52;;;;;;;20.73;19.17;;;20.50;99.90;;;;;;5018941;28;20805;-54
2021/07/09 17:58:20;;;;;;;19.70;17.80;;;20.40;99.90;;;;;;5018618;28;20523;-56
2021/07/09 18:00:50;;;;;;;19.93;18.13;;;20.40;99.90;;;;;;5020696;28;20811;-56
2021/07/09 18:03:17;;;;;;;21.90;20.10;;;20.30;99.90;;;;;;5016486;28;20472;-56
2021/07/09 18:05:44;;;;;;;21.50;19.70;;;20.20;99.90;;;;;;5019947;28;20921;-54
2021/07/09 19:23:07;;;;;;;23.43;21.40;;;18.70;99.90;;;;;;3608628;22;20471;-55
2021/07/09 19:25:35;;;;;;;23.77;21.60;;;18.70;99.90;;;;;;5018331;28;20500;-56
2021/07/09 19:28:06;;;;;;;24.20;22.10;;;18.60;99.90;;;;;;5020879;28;20471;-51
2021/07/09 19:30:33;;;;;;;24.17;21.97;;;18.60;99.90;;;;;;5017101;28;20920;-55
2021/07/09 19:33:01;;;;;;;21.40;19.53;;;18.70;99.90;;;;;;5017623;28;20562;-53
2021/07/09 19:35:29;;;;;;;21.47;19.57;;;18.60;99.90;;;;;;5030841;28;20433;-58